Nearby METAR Reports

 

KDVT - Phoenix/Deer Vly, Arizona, USA
Distance from station: NNE 10mi, 16km
Updated: 05/20/2024 10:53pm
Clear
Clear
 Wind from calm
Wind: Calm
Temperature: 72°F , 22°C
Dew Point: 36°F , 2°C
Humidity: 27%
Barometer: 29.79 inHg , 1008.8 hPa
Clouds: Clear
Visibility: 10 miles , 16 km
2024/05/21 05:53 KDVT 210553Z AUTO 00000KT 10SM CLR 22/02 A2979 RMK AO2 SLP068 T02170022 10294 20217 53006
KGEU - Glendale, Arizona, USA
Distance from station: W 10mi, 16km
Updated: 05/20/2024 7:57pm
NOT Current
Few Clouds
Few Clouds
 Wind from SSW
Wind: SSW 7 mph , 11 km/h
Temperature: 86°F , 30°C
Dew Point: 28°F , -2°C
Humidity: 12%
Barometer: 29.72 inHg , 1006.4 hPa
Clouds: Few Clouds
Visibility: 10 miles , 16 km
Cloud details: Few Clouds 9000 ft
Few Clouds 25000 ft
2024/05/21 02:57 KGEU 210257Z 21006KT 10SM FEW090 FEW250 30/M02 A2972 RMK LAST
 
KPHX - Phoenix/Sky Hrbr, Arizona, USA
Distance from station: SE 10mi, 16km
Updated: 05/20/2024 10:51pm
Few Clouds
Few Clouds
 Wind from WSW
Wind: WSW 6 mph , 9 km/h
Temperature: 81°F , 27°C
Dew Point: 28°F , -2°C
Humidity: 15%
Barometer: 29.76 inHg , 1007.8 hPa
Clouds: Few Clouds
Visibility: 10 miles , 16 km
Cloud details: Few Clouds 8000 ft
2024/05/21 05:51 KPHX 210551Z 24005KT 10SM FEW080 27/M02 A2976 RMK AO2 SLP061 T02721017 10317 20261 50007
KSDL - Scottsdale, Arizona, USA
Distance from station: ENE 13mi, 21km
Updated: 05/20/2024 10:53pm
Clear
Clear
 Wind from calm
Wind: Calm
Temperature: 73°F , 23°C
Dew Point: 41°F , 5°C
Humidity: 31%
Barometer: 29.81 inHg , 1009.5 hPa
Clouds: Clear
Visibility: 10 miles , 16 km
2024/05/21 05:53 KSDL 210553Z AUTO 00000KT 10SM CLR 23/05 A2981 RMK AO2 SLP071 T02330050 10300 20233 53005
 
KLUF - Luke Afb/Glendal, Arizona, USA
Distance from station: W 14mi, 22km
Updated: 05/20/2024 10:55pm
Clear
Clear
 Wind from S
Wind: S 8 mph , 13 km/h
Temperature: 79°F , 26°C
Dew Point: 27°F , -3°C
Humidity: 15%
Barometer: 29.76 inHg , 1007.8 hPa
Clouds: Clear
Visibility: 10 miles , 16 km
2024/05/21 05:55 KLUF 210555Z AUTO 19007KT 10SM CLR 26/M03 A2976 RMK AO2 SLP064 T02621034 10328 20262 50009
KGYR - Goodyear Municip, Arizona, USA
Distance from station: SW 16mi, 27km
Updated: 05/20/2024 8:47pm
NOT Current
Few Clouds
Few Clouds
 Wind from SW
Wind: SW 6 mph , 9 km/h
Temperature: 81°F , 27°C
Dew Point: 30°F , -1°C
Humidity: 16%
Barometer: 29.76 inHg , 1007.8 hPa
Clouds: Few Clouds
Visibility: 10 miles , 16 km
Cloud details: Few Clouds 12000 ft
Few Clouds 25000 ft
2024/05/21 03:47 KGYR 210347Z 22005KT 10SM FEW120 FEW250 27/M01 A2976 RMK LAST
 
KFFZ - Mesa/Falcon Fld, Arizona, USA
Distance from station: ESE 24mi, 39km
Updated: 05/20/2024 10:54pm
Clear
Clear
 Wind from calm
Wind: Calm
Temperature: 75°F , 24°C
Dew Point: 43°F , 6°C
Humidity: 31%
Barometer: 29.80 inHg , 1009.1 hPa
Clouds: Clear
Visibility: 10 miles , 16 km
2024/05/21 05:54 KFFZ 210554Z 00000KT 10SM CLR 24/06 A2980 RMK AO2 SLP067 T02390061 10311 20233 53006
KIWA - Chandler/Mesa, Arizona, USA
Distance from station: ESE 32mi, 52km
Updated: 05/20/2024 10:50pm
Clear
Clear
 Wind from NNE
Wind: NNE 8 mph , 13 km/h
Temperature: 72°F , 22°C
Dew Point: 39°F , 4°C
Humidity: 31%
Barometer: 29.81 inHg , 1009.5 hPa
Clouds: Clear
Visibility: 10 miles , 16 km
2024/05/21 05:50 KIWA 210550Z 03007KT 10SM CLR 22/04 A2981
 
KBXK - Buckeye, Arizona, USA
Distance from station: WSW 33mi, 54km
Updated: 05/20/2024 10:55pm
Clear
Clear
 Wind from NW
Wind: NW 7 mph , 11 km/h
Temperature: 79°F , 26°C
Dew Point: 21°F , -6°C
Humidity: 12%
Barometer: 29.77 inHg , 1008.1 hPa
Clouds: Clear
Visibility: 10 miles , 16 km
2024/05/21 05:55 KBXK 210555Z AUTO 32006KT 10SM CLR 26/M06 A2977 RMK A01
KA39 - Maricopa Ak-Chin, Arizona, USA
Distance from station: SSE 41mi, 66km
Updated: 05/20/2024 10:55pm
Clear
Clear
 Wind from S
Wind: S 5 mph , 7 km/h
Temperature: 68°F , 20°C
Dew Point: 32°F , 0°C
Humidity: 26%
Barometer: 29.83 inHg , 1010.2 hPa
Clouds: Clear
Visibility: 10 miles , 16 km
2024/05/21 05:55 KA39 210555Z AUTO 17004KT 10SM CLR 20/00 A2983 RMK AO2
 
KCGZ - Casa Granda, Arizona, USA
Distance from station: SSE 46mi, 74km
Updated: 05/20/2024 10:56pm
Clear
Clear
 Wind from calm
Wind: Calm
Temperature: 72°F , 22°C
Dew Point: 30°F , -1°C
Humidity: 22%
Barometer: 29.82 inHg , 1009.8 hPa
Clouds: Clear
Visibility: 10 miles , 16 km
2024/05/21 05:56 KCGZ 210556Z AUTO 00000KT 10SM CLR 22/M01 A2982 RMK AO2 SLP086 6//// T02221006 10328 20222 51010 PNO $